Rakitna Rakitna

Učna pot


Verjetnost toče več informacij Hail probability


Požarna ogroženost več informacij Fire risk


Moja kamera več informacij My webcam


Cestna kamera več informacij Road camera


ARSO, spremljajte nas več informacij


Obiščite še:

Template documentacija
in prenos

in še drugo stran



Posebna pozornost v zvezi z vremenskimi dogajanji ni potrebna.    Posebna pozornost v zvezi z vremenskimi dogajanji ni potrebna.

METAR v bližini

   
LJLJ - Ljubljana
Posodobljeno: 15-10-2018 10:30
pretežno oblačno  
pretežno oblačno  
   Veter: različen 1.9 km/h
Veter: različen 1.9 km/h
Temperatura: 11°C
Točka rosišča: 10°C
Vlažnost: 94%
Zračni tlak: 1022 hPa
Oblaki: pretežno oblačno
Vidljivost: več kot 10 km
Podrobnosti o oblakih: nekaj oblakov 6000 ft,
delno oblačno 8500 ft,
pretežno oblačno 10000 ft
LJLJ 150830Z VRB01KT 9999 FEW060 SCT085 BKN100 11/10 Q1022 NOSIG
LJCE - Cerklje ob Krki
Posodobljeno: 15-10-2018 11:00
jasno  
jasno  
   Veter: Zahod 5.6 km/h
Veter: Zahod 5.6 km/h
Temperatura: 13°C
Točka rosišča: 10°C
Vlažnost: 82%
Zračni tlak: 1022 hPa
Vidljivost: več kot 10 km
Podrobnosti o oblakih: jasno
LJCE 150900Z 28003KT 240V320 CAVOK 13/10 Q1022 RMK BLU
LJMB - Maribor
Posodobljeno: 15-10-2018 11:00
pretežno oblačno  
pretežno oblačno  
   Veter: Brezveterje
Veter: Brezveterje
Temperatura: 13°C
Točka rosišča: 9°C
Vlažnost: 77%
Zračni tlak: 1023 hPa
Oblaki: pretežno oblačno
Vidljivost: več kot 10 km
Podrobnosti o oblakih: nekaj oblakov 2300 ft,
pretežno oblačno 11000 ft
LJMB 150900Z 00000KT 9999 FEW023 BKN110 13/09 Q1023
LJPZ - Portorož
Posodobljeno: 15-10-2018 11:00
pretežno oblačno  
pretežno oblačno  
   Veter: Vzhod 9.3 km/h
Veter: Vzhod 9.3 km/h
Temperatura: 16°C
Točka rosišča: 13°C
Vlažnost: 83%
Zračni tlak: 1019 hPa
Oblaki: pretežno oblačno
Vidljivost: več kot 10 km
Podrobnosti o oblakih: nekaj oblakov 4300 ft,
delno oblačno 7000 ft,
pretežno oblačno 11000 ft
LJPZ 150900Z 10005KT 9999 FEW043 SCT070 BKN110 16/13 Q1019
LDRI - Rijeka, Airport, Croatia
Posodobljeno: 15-10-2018 11:00
nekaj oblakov  
nekaj oblakov  
   Veter: Zahod 5.6 km/h
Veter: Zahod 5.6 km/h
Temperatura: 18°C
Točka rosišča: 13°C
Vlažnost: 73%
Zračni tlak: 1020 hPa
Oblaki: nekaj oblakov
Vidljivost: več kot 10 km
Podrobnosti o oblakih: nekaj oblakov 5000 ft
LDRI 150900Z 26003KT 240V310 9999 FEW050 18/13 Q1020
LOWK - Klagenfurt, Airport, Avstia
Posodobljeno: 15-10-2018 10:50
pretežno oblačno  
pretežno oblačno  
   Veter: SZ 5.6 km/h
Veter: SZ 5.6 km/h
Temperatura: 10°C
Občutek mraza: 9°C
Točka rosišča: 8°C
Vlažnost: 88%
Zračni tlak: 1023 hPa
Oblaki: pretežno oblačno
Vidljivost: 6 km
Podrobnosti o oblakih: nekaj oblakov 500 ft,
delno oblačno 5000 ft,
pretežno oblačno 10000 ft
LOWK 150850Z 31003KT 6000 FEW005 SCT050 BKN100 10/08 Q1023 NOSIG

Script developed by  Saratoga-weather.org Adapted for the template by  Weerstation Leuven

Vremenski podatki so objavljeni na:

Weather Underground

Slovenska vremenska mreža

WeatherlinkIP

MapView

Geostik

Oprema, ki se uporablja:

Vremenska postaja
Davis VP2+ ventilirana

Vremenski program
WeatherLink

Vremenski server
Shuttle XS35V4

Ponudnik
Vremensko društvo ZEVS

Davis VP2+ ventilirana

WeatherLink

Shuttle XS35V4

Vremensko društvo ZEVS

Meteorološki podatki vremenske postaje Rakitna so neuradni, meteorološka postaja sama pa ni del državne mreže Agencije Republike Slovenije za okolje (ARSO),
je pa vključena v Vremensko društvo ZEVS. Prikazani podatki so izmerjeni točno, vendar so zgolj informativni in nimajo značaja uradnega podatka.

Podatke meri vremenska postaja "Davis VP2+ ventilirana" od 05.03.2011 dalje.

Opozarjamo, da ne prevzamemo odgovornosti za morebitno nastalo škodo, ki bi nastala zaradi odločitve, sprejete na osnovi teh podatkov!